createdAt,value
2018-04-27T00:01:01.011Z,1.52
2018-04-27T00:03:29.278Z,1.83
2018-04-27T00:05:57.557Z,2.10
2018-04-27T00:08:25.827Z,1.67
2018-04-27T00:10:54.149Z,1.50
2018-04-27T00:13:23.209Z,1.30
2018-04-27T00:15:51.494Z,1.40
2018-04-27T00:18:19.797Z,1.90
2018-04-27T00:20:48.800Z,1.60
2018-04-27T00:23:17.259Z,1.60
2018-04-27T00:25:46.283Z,1.62
2018-04-27T00:28:14.557Z,1.60
2018-04-27T00:30:42.809Z,1.62
2018-04-27T00:33:11.137Z,1.83
2018-04-27T00:35:39.420Z,1.90
2018-04-27T00:38:07.922Z,1.30
2018-04-27T00:40:36.198Z,1.80
2018-04-27T00:43:04.450Z,1.92
2018-04-27T00:45:32.742Z,2.00
2018-04-27T00:48:01.022Z,1.40
2018-04-27T00:50:29.279Z,2.60
2018-04-27T00:53:14.590Z,1.42
2018-04-27T00:55:43.611Z,1.77
2018-04-27T00:58:12.637Z,1.23
2018-04-27T01:00:40.914Z,1.73
2018-04-27T01:03:11.690Z,1.87
2018-04-27T01:05:39.963Z,2.35
2018-04-27T01:08:08.237Z,1.60
2018-04-27T01:10:36.645Z,1.42
2018-04-27T01:13:04.917Z,2.17
2018-04-27T01:15:33.165Z,1.65
2018-04-27T01:18:02.197Z,1.42
2018-04-27T01:20:30.477Z,2.62
2018-04-27T01:22:58.750Z,1.83
2018-04-27T01:25:27.017Z,1.50
2018-04-27T01:27:55.301Z,2.03
2018-04-27T01:30:23.596Z,2.10
2018-04-27T01:32:51.845Z,1.55
2018-04-27T01:35:20.140Z,1.80
2018-04-27T01:37:48.378Z,1.60
2018-04-27T01:40:16.649Z,1.80
2018-04-27T01:42:44.902Z,2.25
2018-04-27T01:45:14.140Z,2.45
2018-04-27T01:47:42.394Z,1.80
2018-04-27T01:50:10.661Z,2.30
2018-04-27T01:52:38.919Z,2.35
2018-04-27T01:55:07.955Z,2.15
2018-04-27T01:57:36.221Z,2.03
2018-04-27T02:00:04.481Z,2.28
2018-04-27T02:02:32.761Z,2.58
2018-04-27T02:05:01.039Z,2.00
2018-04-27T02:07:29.333Z,2.80
2018-04-27T02:09:57.601Z,2.67
2018-04-27T02:12:25.873Z,2.28
2018-04-27T02:14:54.239Z,2.00
2018-04-27T02:17:22.517Z,2.60
2018-04-27T02:19:50.765Z,2.08
2018-04-27T02:22:19.823Z,2.20
2018-04-27T02:24:48.182Z,2.78
2018-04-27T02:27:16.792Z,1.70
2018-04-27T02:29:45.047Z,2.10
2018-04-27T02:32:13.349Z,2.37
2018-04-27T02:34:41.616Z,2.30
2018-04-27T02:37:09.862Z,2.15
2018-04-27T02:39:38.143Z,1.90
2018-04-27T02:42:06.411Z,1.45
2018-04-27T02:44:34.695Z,2.50
2018-04-27T02:47:02.971Z,1.60
2018-04-27T02:49:31.242Z,1.92
2018-04-27T02:51:59.565Z,2.12
2018-04-27T02:54:27.832Z,2.05
2018-04-27T02:56:56.116Z,2.67
2018-04-27T02:59:25.149Z,2.20
2018-04-27T03:01:53.411Z,1.75
2018-04-27T03:04:22.797Z,2.35
2018-04-27T03:06:51.825Z,2.15
2018-04-27T03:09:20.375Z,2.10
2018-04-27T03:11:49.393Z,2.20
2018-04-27T03:14:17.662Z,2.60
2018-04-27T03:16:45.958Z,2.30
2018-04-27T03:19:14.212Z,2.47
2018-04-27T03:21:42.596Z,2.58
2018-04-27T03:24:10.838Z,2.40
2018-04-27T03:26:39.944Z,2.20
2018-04-27T03:29:08.209Z,1.75
2018-04-27T03:31:37.238Z,2.30
2018-04-27T03:34:05.577Z,2.80
2018-04-27T03:36:34.680Z,2.67
2018-04-27T03:39:02.872Z,2.33
2018-04-27T03:41:31.133Z,3.10
2018-04-27T03:43:59.417Z,2.92
2018-04-27T03:46:27.699Z,2.30
2018-04-27T03:48:55.985Z,2.50
2018-04-27T03:51:24.253Z,2.55
2018-04-27T03:53:52.531Z,3.50
2018-04-27T03:56:20.804Z,2.85
2018-04-27T03:58:49.079Z,2.05
2018-04-27T04:01:34.899Z,2.78
2018-04-27T04:04:20.909Z,2.25
2018-04-27T04:06:49.951Z,2.92
2018-04-27T04:09:18.225Z,2.25
2018-04-27T04:11:46.477Z,2.80
2018-04-27T04:14:14.754Z,2.87
2018-04-27T04:16:43.042Z,2.72
2018-04-27T04:19:11.348Z,2.33
2018-04-27T04:21:39.614Z,3.30
2018-04-27T04:24:07.872Z,2.67
2018-04-27T04:26:36.150Z,3.03
2018-04-27T04:29:04.399Z,2.30
2018-04-27T04:31:32.821Z,2.80
2018-04-27T04:34:01.090Z,2.10
2018-04-27T04:36:30.127Z,4.05
2018-04-27T04:38:59.158Z,8.45
2018-04-27T04:41:27.497Z,5.70
2018-04-27T04:43:55.782Z,6.15
2018-04-27T04:46:24.815Z,4.35
2018-04-27T04:48:53.066Z,4.20
2018-04-27T04:51:21.358Z,4.75
2018-04-27T04:53:49.634Z,3.25
2018-04-27T04:56:17.906Z,4.80
2018-04-27T04:58:46.253Z,4.57
2018-04-27T05:01:14.837Z,3.65
2018-04-27T05:03:44.070Z,4.37
2018-04-27T05:06:12.552Z,4.00
2018-04-27T05:08:40.986Z,3.87
2018-04-27T05:11:09.300Z,3.10
2018-04-27T05:13:37.575Z,3.37
2018-04-27T05:16:05.829Z,3.33
2018-04-27T05:21:34.299Z,3.40
2018-04-27T05:24:03.449Z,4.30
2018-04-27T05:26:32.126Z,4.25
2018-04-27T05:29:00.411Z,4.60
2018-04-27T05:31:28.668Z,4.70
2018-04-27T05:33:56.987Z,3.62
2018-04-27T05:36:25.343Z,4.15
2018-04-27T05:38:53.628Z,4.03
2018-04-27T05:41:22.032Z,3.83
2018-04-27T05:43:50.806Z,4.90
2018-04-27T05:46:20.577Z,2.95
2018-04-27T05:48:48.840Z,4.45
2018-04-27T05:51:17.247Z,4.37
2018-04-27T05:53:45.588Z,4.50
2018-04-27T05:56:14.702Z,3.97
2018-04-27T05:58:43.489Z,4.72
2018-04-27T06:01:11.922Z,5.78
2018-04-27T06:03:59.305Z,5.90
2018-04-27T06:06:27.571Z,4.65
2018-04-27T06:08:55.921Z,4.57
2018-04-27T06:11:24.243Z,5.57
2018-04-27T06:13:52.501Z,3.97
2018-04-27T06:16:20.773Z,4.70
2018-04-27T06:18:49.061Z,4.68
2018-04-27T06:21:17.472Z,4.12
2018-04-27T06:23:50.505Z,4.50
2018-04-27T06:26:18.855Z,5.15
2018-04-27T06:28:48.947Z,4.68
2018-04-27T06:31:18.099Z,4.15
2018-04-27T06:33:46.429Z,4.35
2018-04-27T06:36:15.469Z,4.80
2018-04-27T06:38:43.781Z,5.45
2018-04-27T06:41:12.148Z,4.85
2018-04-27T06:43:40.795Z,4.30
2018-04-27T06:46:09.100Z,3.90
2018-04-27T06:48:37.439Z,7.05
2018-04-27T06:51:05.745Z,4.60
2018-04-27T06:53:33.997Z,5.00
2018-04-27T06:56:02.402Z,4.95
2018-04-27T06:58:30.687Z,4.93
2018-04-27T07:00:58.975Z,4.80
2018-04-27T07:03:27.324Z,3.60
2018-04-27T07:05:55.577Z,4.60
2018-04-27T07:08:24.046Z,5.35
2018-04-27T07:10:52.395Z,3.95
2018-04-27T07:13:21.681Z,4.25
2018-04-27T07:15:50.014Z,2.85
2018-04-27T07:18:18.291Z,2.62
2018-04-27T07:20:46.824Z,2.20
2018-04-27T07:23:15.883Z,2.65
2018-04-27T07:25:44.582Z,2.47
2018-04-27T07:28:12.866Z,1.80
2018-04-27T07:30:41.182Z,1.80
2018-04-27T07:33:09.487Z,1.40
2018-04-27T07:35:37.795Z,2.42
2018-04-27T07:38:06.134Z,1.50
2018-04-27T07:40:34.436Z,1.50
2018-04-27T07:43:02.718Z,1.35
2018-04-27T07:45:31.058Z,1.65
2018-04-27T07:47:59.322Z,1.42
2018-04-27T07:50:27.624Z,1.35
2018-04-27T07:52:55.993Z,1.50
2018-04-27T07:55:25.239Z,1.62
2018-04-27T07:57:53.650Z,1.15
2018-04-27T08:00:27.230Z,1.37
2018-04-27T08:02:56.384Z,1.45
2018-04-27T08:05:24.653Z,1.40
2018-04-27T08:07:52.963Z,1.60
2018-04-27T08:10:21.308Z,2.12
2018-04-27T08:12:49.600Z,1.42
2018-04-27T08:15:17.869Z,1.42
2018-04-27T08:17:46.496Z,1.35
2018-04-27T08:20:18.302Z,1.05
2018-04-27T08:22:47.347Z,2.30
2018-04-27T08:25:15.592Z,1.48
2018-04-27T08:27:44.645Z,1.50
2018-04-27T08:30:13.172Z,1.00
2018-04-27T08:32:41.472Z,1.08
2018-04-27T08:35:09.868Z,1.00
2018-04-27T08:37:38.142Z,1.40
2018-04-27T08:40:06.492Z,1.10
2018-04-27T08:42:35.576Z,1.27
2018-04-27T08:45:04.591Z,1.58
2018-04-27T08:47:33.051Z,1.48
2018-04-27T08:50:02.106Z,1.37
2018-04-27T08:52:30.469Z,1.20
2018-04-27T08:54:58.810Z,1.10
2018-04-27T08:57:27.068Z,1.40
2018-04-27T08:59:56.114Z,1.65
2018-04-27T09:02:24.585Z,1.52
2018-04-27T09:04:52.869Z,1.23
2018-04-27T09:07:21.163Z,1.00
2018-04-27T09:09:50.473Z,1.00
2018-04-27T09:12:18.806Z,1.17
2018-04-27T09:14:47.111Z,0.95
2018-04-27T09:17:15.372Z,0.82
2018-04-27T09:19:43.656Z,1.02
2018-04-27T09:22:12.010Z,0.90
2018-04-27T09:24:40.420Z,0.80
2018-04-27T09:27:08.858Z,1.15
2018-04-27T09:29:37.379Z,1.02
2018-04-27T09:32:05.639Z,1.35
2018-04-27T09:34:34.012Z,1.00
2018-04-27T09:37:02.375Z,0.80
2018-04-27T09:39:30.630Z,1.05
2018-04-27T09:41:58.923Z,0.90
2018-04-27T09:44:27.238Z,1.00
2018-04-27T09:46:55.941Z,1.00
2018-04-27T09:49:24.976Z,0.80
2018-04-27T09:51:53.465Z,1.30
2018-04-27T09:54:21.736Z,1.17
2018-04-27T09:56:50.023Z,1.10
2018-04-27T09:59:18.311Z,1.23
2018-04-27T10:01:46.610Z,1.50
2018-04-27T10:04:15.665Z,1.30
2018-04-27T10:06:43.981Z,0.90
2018-04-27T10:09:12.227Z,1.10
2018-04-27T10:11:40.527Z,1.47
2018-04-27T10:14:08.939Z,1.43
2018-04-27T10:16:37.205Z,1.90
2018-04-27T10:19:06.242Z,1.20
2018-04-27T10:21:34.885Z,1.00
2018-04-27T10:24:03.171Z,1.80
2018-04-27T10:26:31.421Z,1.00
2018-04-27T10:29:00.477Z,1.30
2018-04-27T10:31:28.749Z,1.43
2018-04-27T10:33:57.509Z,1.33
2018-04-27T10:36:25.826Z,1.17
2018-04-27T10:38:54.043Z,1.20
2018-04-27T10:41:22.364Z,1.47
2018-04-27T10:43:50.666Z,1.10
2018-04-27T10:46:19.703Z,1.40
2018-04-27T10:48:47.971Z,1.23
2018-04-27T10:51:16.288Z,2.03
2018-04-27T10:53:44.527Z,1.10
2018-04-27T10:56:12.851Z,1.10
2018-04-27T10:58:41.287Z,1.23
2018-04-27T11:01:09.565Z,1.00
2018-04-27T11:03:38.108Z,1.60
2018-04-27T11:06:07.249Z,1.10
2018-04-27T11:08:35.510Z,1.10
2018-04-27T11:11:03.902Z,1.20
2018-04-27T11:13:32.175Z,1.20
2018-04-27T11:16:00.626Z,1.00
2018-04-27T11:18:29.800Z,0.90
2018-04-27T11:20:58.859Z,1.17
2018-04-27T11:23:27.169Z,1.77
2018-04-27T11:25:56.212Z,0.87
2018-04-27T11:28:24.490Z,1.13
2018-04-27T11:30:52.767Z,1.33
2018-04-27T11:33:21.212Z,1.93
2018-04-27T11:35:49.517Z,2.80
2018-04-27T11:38:21.022Z,1.23
2018-04-27T11:40:49.430Z,1.13
2018-04-27T11:43:17.766Z,1.20
2018-04-27T11:45:46.026Z,1.13
2018-04-27T11:48:14.345Z,1.43
2018-04-27T11:50:43.391Z,1.53
2018-04-27T11:53:11.758Z,1.23
2018-04-27T11:55:39.971Z,1.27
2018-04-27T11:58:09.109Z,1.37
2018-04-27T12:00:37.488Z,1.13
2018-04-27T12:03:06.001Z,1.33
2018-04-27T12:05:34.334Z,1.20
2018-04-27T12:08:02.635Z,1.47
2018-04-27T12:10:31.008Z,0.97
2018-04-27T12:12:59.334Z,1.40
2018-04-27T12:15:28.325Z,1.63
2018-04-27T12:17:57.407Z,1.07
2018-04-27T12:20:25.687Z,1.30
2018-04-27T12:22:54.724Z,1.20
2018-04-27T12:25:23.075Z,1.10
2018-04-27T12:27:51.536Z,1.27
2018-04-27T12:30:19.826Z,1.50
2018-04-27T12:32:48.906Z,1.40
2018-04-27T12:35:18.102Z,1.33
2018-04-27T12:37:46.655Z,1.20
2018-04-27T12:40:14.915Z,1.60
2018-04-27T12:42:43.233Z,1.00
2018-04-27T12:45:12.356Z,1.43
2018-04-27T12:47:40.725Z,2.20
2018-04-27T12:50:09.409Z,1.30
2018-04-27T12:52:38.442Z,1.83
2018-04-27T12:55:06.722Z,1.80
2018-04-27T12:57:34.990Z,1.87
2018-04-27T13:00:03.279Z,2.50
2018-04-27T13:02:31.590Z,1.37
2018-04-27T13:05:00.612Z,1.10
2018-04-27T13:07:28.933Z,1.23
2018-04-27T13:09:57.290Z,1.53
2018-04-27T13:12:25.783Z,1.57
2018-04-27T13:14:54.069Z,1.77
2018-04-27T13:17:22.691Z,1.53
2018-04-27T13:19:51.503Z,1.43
2018-04-27T13:22:19.761Z,1.23
2018-04-27T13:24:48.034Z,1.10
2018-04-27T13:27:16.283Z,1.00
2018-04-27T13:29:45.375Z,1.30
2018-04-27T13:32:14.059Z,1.70
2018-04-27T13:34:43.145Z,1.20
2018-04-27T13:37:11.416Z,1.17
2018-04-27T13:39:40.481Z,1.33
2018-04-27T13:42:08.803Z,1.10
2018-04-27T13:44:37.880Z,1.20
2018-04-27T13:47:06.940Z,1.20
2018-04-27T13:49:35.213Z,1.57
2018-04-27T13:52:03.489Z,1.67
2018-04-27T13:54:31.887Z,0.87
2018-04-27T13:57:00.138Z,1.13
2018-04-27T13:59:28.474Z,0.90
2018-04-27T14:01:56.915Z,1.00
2018-04-27T14:04:25.228Z,1.10
2018-04-27T14:06:53.507Z,1.10
2018-04-27T14:09:22.840Z,1.00
2018-04-27T14:11:51.126Z,1.20
2018-04-27T14:14:19.400Z,1.40
2018-04-27T14:16:47.694Z,1.33
2018-04-27T14:19:16.216Z,1.20
2018-04-27T14:21:45.278Z,1.00
2018-04-27T14:24:13.539Z,1.00
2018-04-27T14:26:41.988Z,1.00
2018-04-27T14:29:10.259Z,1.43
2018-04-27T14:31:38.743Z,1.20
2018-04-27T14:34:07.014Z,1.10
2018-04-27T14:36:35.334Z,1.03
2018-04-27T14:39:03.712Z,1.63
2018-04-27T14:41:32.074Z,1.30
2018-04-27T14:44:00.464Z,1.20
2018-04-27T14:46:28.831Z,1.10
2018-04-27T14:48:57.859Z,1.37
2018-04-27T14:51:26.146Z,1.37
2018-04-27T14:53:54.450Z,1.20
2018-04-27T14:56:22.730Z,1.20
2018-04-27T14:58:52.610Z,1.53
2018-04-27T15:01:21.944Z,1.10
2018-04-27T15:03:50.213Z,1.37
2018-04-27T15:06:18.489Z,2.10
2018-04-27T15:08:52.429Z,1.73
2018-04-27T15:11:22.656Z,1.07
2018-04-27T15:13:50.955Z,1.30
2018-04-27T15:16:20.610Z,1.43
2018-04-27T15:18:49.170Z,1.00
2018-04-27T15:21:17.523Z,1.73
2018-04-27T15:23:46.621Z,1.07
2018-04-27T15:26:14.937Z,1.50
2018-04-27T15:28:44.141Z,1.33
2018-04-27T15:31:12.529Z,1.97
2018-04-27T15:33:41.120Z,1.50
2018-04-27T15:36:09.666Z,1.10
2018-04-27T15:38:37.936Z,1.03
2018-04-27T15:41:06.284Z,1.17
2018-04-27T15:43:35.991Z,1.10
2018-04-27T15:46:05.106Z,2.10
2018-04-27T15:48:33.389Z,2.40
2018-04-27T15:51:01.740Z,1.53
2018-04-27T15:53:31.092Z,2.00
2018-04-27T15:55:59.550Z,1.43
2018-04-27T15:58:27.828Z,1.60
2018-04-27T16:00:56.330Z,1.73
2018-04-27T16:03:24.830Z,1.50
2018-04-27T16:05:53.086Z,1.13
2018-04-27T16:08:21.515Z,1.60
2018-04-27T16:10:50.778Z,1.50
2018-04-27T16:13:54.448Z,1.70
2018-04-27T16:16:23.136Z,1.60
2018-04-27T16:18:52.132Z,1.43
2018-04-27T16:21:20.429Z,1.30
2018-04-27T16:23:48.677Z,1.60
2018-04-27T16:26:34.467Z,1.10
2018-04-27T16:29:02.768Z,1.83
2018-04-27T16:31:31.029Z,1.30
2018-04-27T16:33:59.298Z,1.53
2018-04-27T16:36:27.791Z,1.67
2018-04-27T16:38:56.774Z,1.60
2018-04-27T16:41:26.280Z,1.80
2018-04-27T16:44:01.848Z,1.10
2018-04-27T16:46:32.322Z,1.80
2018-04-27T16:49:01.340Z,1.50
2018-04-27T16:51:30.538Z,1.37
2018-04-27T16:53:59.719Z,1.77
2018-04-27T19:11:55.995Z,1.50
2018-04-27T19:14:24.693Z,2.30
2018-04-27T19:16:53.599Z,1.50
2018-04-27T19:19:23.116Z,1.77
2018-04-27T19:21:52.412Z,1.83
2018-04-27T19:24:21.710Z,1.50
2018-04-27T19:26:51.132Z,1.60
2018-04-27T19:29:20.722Z,1.55
2018-04-27T19:31:50.351Z,1.90
2018-04-27T19:34:18.915Z,1.60
2018-04-27T19:36:48.159Z,2.35
2018-04-27T19:39:16.777Z,1.80
2018-04-27T19:41:45.335Z,1.67
2018-04-27T19:44:14.836Z,1.98
2018-04-27T19:46:43.315Z,2.00
2018-04-27T19:49:11.907Z,1.55
2018-04-27T19:51:41.268Z,2.12
2018-04-27T19:54:09.865Z,2.40
2018-04-27T19:56:38.246Z,2.60
2018-04-27T19:59:06.969Z,1.90
2018-04-27T20:01:36.032Z,2.33
2018-04-27T20:04:04.451Z,1.83
2018-04-27T20:06:34.289Z,2.17
2018-04-27T20:09:02.731Z,1.85
2018-04-27T20:11:31.165Z,1.55
2018-04-27T20:13:59.632Z,1.52
2018-04-27T20:16:40.525Z,1.50
2018-04-27T20:19:09.833Z,1.87
2018-04-27T20:21:38.382Z,1.70
2018-04-27T20:24:07.678Z,2.22
2018-04-27T20:26:36.186Z,2.30
2018-04-27T20:29:05.095Z,2.37
2018-04-27T20:31:33.818Z,2.05
2018-04-27T20:34:03.188Z,1.98
2018-04-27T20:36:32.093Z,2.10
2018-04-27T20:39:01.580Z,2.15
2018-04-27T20:41:29.999Z,2.37
2018-04-27T20:43:59.358Z,3.05
2018-04-27T20:46:27.873Z,2.62
2018-04-27T20:48:57.634Z,2.40
2018-04-27T20:51:26.145Z,2.65
2018-04-27T20:54:03.330Z,4.50
2018-04-27T20:56:46.711Z,4.35
2018-04-27T20:59:16.543Z,4.30
2018-04-27T21:01:45.095Z,5.62
2018-04-27T21:04:18.555Z,7.03
2018-04-27T21:06:47.462Z,6.85
2018-04-27T21:09:16.086Z,5.70
2018-04-27T21:11:47.785Z,10.88
2018-04-27T21:14:16.161Z,7.80
2018-04-27T21:16:44.713Z,10.50
2018-04-27T21:19:13.644Z,6.82
2018-04-27T21:21:42.891Z,7.65
2018-04-27T21:24:11.485Z,7.03
2018-04-27T21:26:40.773Z,6.57
2018-04-27T21:29:09.133Z,7.50
2018-04-27T21:31:37.502Z,5.90
2018-04-27T21:34:06.211Z,5.30
2018-04-27T21:36:43.005Z,5.22
2018-04-27T21:39:15.949Z,5.10
2018-04-27T21:42:13.125Z,5.10
2018-04-27T21:44:44.708Z,3.97
2018-04-27T21:47:13.829Z,5.00
2018-04-27T21:49:42.754Z,3.35
2018-04-27T21:52:25.898Z,3.03
2018-04-27T21:54:54.246Z,3.12
2018-04-27T21:57:32.143Z,3.20
2018-04-27T22:00:05.968Z,3.08
2018-04-27T22:02:42.592Z,2.80
2018-04-27T22:08:43.026Z,3.00
2018-04-27T22:14:32.627Z,3.17
2018-04-27T22:17:08.857Z,2.67
2018-04-27T22:19:37.137Z,2.60
2018-04-27T22:22:05.485Z,3.55
2018-04-27T22:24:48.622Z,3.30
2018-04-27T22:27:16.921Z,3.05
2018-04-27T22:29:46.898Z,2.80
2018-04-27T22:32:23.128Z,1.92
2018-04-27T22:34:54.573Z,2.90
2018-04-27T22:37:23.006Z,3.15
2018-04-27T22:40:03.119Z,3.30
2018-04-27T22:42:45.629Z,2.70
2018-04-27T22:45:14.808Z,2.95
2018-04-27T22:47:50.157Z,2.60
2018-04-27T22:50:22.501Z,4.10
2018-04-27T22:52:53.435Z,3.25
2018-04-27T22:55:21.710Z,2.60
2018-04-27T22:58:07.681Z,2.87
2018-04-27T23:00:38.451Z,3.30
2018-04-27T23:03:17.446Z,2.67
2018-04-27T23:05:45.706Z,2.45
2018-04-27T23:08:14.019Z,2.53
2018-04-27T23:10:45.729Z,3.25
2018-04-27T23:13:24.663Z,2.72
2018-04-27T23:16:00.182Z,2.70
2018-04-27T23:18:43.401Z,2.55
2018-04-27T23:24:18.479Z,4.15
2018-04-27T23:27:01.834Z,2.45
2018-04-27T23:29:30.117Z,2.90
2018-04-27T23:31:58.369Z,2.75
2018-04-27T23:34:27.564Z,2.85
2018-04-27T23:36:58.770Z,2.40
2018-04-27T23:39:27.071Z,2.58
2018-04-27T23:41:55.320Z,2.80
2018-04-27T23:44:23.597Z,2.35
2018-04-27T23:46:51.900Z,2.47
2018-04-27T23:49:21.917Z,2.35
2018-04-27T23:51:51.069Z,2.55
2018-04-27T23:54:20.200Z,1.95
2018-04-27T23:56:50.118Z,2.20
2018-04-27T23:59:21.154Z,2.12
